createdAt,value
2023-09-27T00:01:01.389Z,102185.00
2023-09-27T00:03:27.929Z,102190.22
2023-09-27T00:05:54.599Z,102194.72
2023-09-27T00:08:21.193Z,102202.63
2023-09-27T00:10:47.705Z,102205.41
2023-09-27T00:13:14.210Z,102198.53
2023-09-27T00:15:41.277Z,102199.53
2023-09-27T00:18:07.985Z,102198.81
2023-09-27T00:20:34.490Z,102196.97
2023-09-27T00:23:01.623Z,102198.94
2023-09-27T00:25:28.077Z,102193.59
2023-09-27T00:27:54.515Z,102195.41
2023-09-27T00:30:21.003Z,102196.25
2023-09-27T00:32:47.531Z,102187.38
2023-09-27T00:35:20.786Z,102190.06
2023-09-27T00:37:48.251Z,102197.50
2023-09-27T00:40:16.197Z,102193.00
2023-09-27T00:42:42.804Z,102177.94
2023-09-27T00:45:09.549Z,102181.47
2023-09-27T00:47:36.723Z,102178.91
2023-09-27T00:50:03.635Z,102175.28
2023-09-27T00:52:30.593Z,102179.06
2023-09-27T00:54:58.154Z,102186.09
2023-09-27T00:57:24.799Z,102178.78
2023-09-27T00:59:51.452Z,102191.03
2023-09-27T01:02:18.049Z,102190.91
2023-09-27T01:04:44.907Z,102192.00
2023-09-27T01:07:11.429Z,102181.47
2023-09-27T01:09:38.811Z,102187.91
2023-09-27T01:12:05.775Z,102189.03
2023-09-27T01:14:32.346Z,102183.97
2023-09-27T01:17:08.634Z,102182.53
2023-09-27T01:19:35.688Z,102182.09
2023-09-27T01:22:02.243Z,102185.63
2023-09-27T01:24:31.266Z,102182.53
2023-09-27T01:26:58.720Z,102175.75
2023-09-27T01:29:25.201Z,102175.88
2023-09-27T01:31:51.759Z,102179.66
2023-09-27T01:34:18.307Z,102187.28
2023-09-27T01:36:44.740Z,102187.84
2023-09-27T01:39:11.223Z,102192.47
2023-09-27T01:41:37.667Z,102184.47
2023-09-27T01:44:04.164Z,102182.59
2023-09-27T01:46:30.711Z,102178.69
2023-09-27T01:48:57.209Z,102176.59
2023-09-27T01:51:23.663Z,102185.19
2023-09-27T01:53:50.125Z,102188.72
2023-09-27T01:56:16.675Z,102180.81
2023-09-27T01:58:43.213Z,102172.09
2023-09-27T02:01:09.742Z,102177.25
2023-09-27T02:03:36.358Z,102182.31
2023-09-27T02:06:02.916Z,102192.88
2023-09-27T02:08:29.486Z,102183.88
2023-09-27T02:10:56.003Z,102185.59
2023-09-27T02:13:22.463Z,102198.09
2023-09-27T02:15:48.993Z,102201.47
2023-09-27T02:18:15.467Z,102204.16
2023-09-27T02:20:42.527Z,102212.88
2023-09-27T02:23:09.026Z,102208.38
2023-09-27T02:25:35.565Z,102207.53
2023-09-27T02:28:02.131Z,102207.78
2023-09-27T02:30:28.590Z,102211.44
2023-09-27T02:32:55.126Z,102217.50
2023-09-27T02:35:22.306Z,102213.13
2023-09-27T02:37:48.932Z,102207.78
2023-09-27T02:40:15.717Z,102197.97
2023-09-27T02:42:42.755Z,102194.69
2023-09-27T02:45:13.012Z,102200.75
2023-09-27T02:47:40.627Z,102205.00
2023-09-27T02:50:11.176Z,102205.97
2023-09-27T02:52:39.582Z,102207.53
2023-09-27T02:55:09.936Z,102206.56
2023-09-27T02:57:37.198Z,102199.38
2023-09-27T03:00:04.637Z,102191.50
2023-09-27T03:02:32.688Z,102192.34
2023-09-27T03:04:59.345Z,102190.66
2023-09-27T03:07:25.831Z,102195.16
2023-09-27T03:09:52.276Z,102190.66
2023-09-27T03:12:18.723Z,102189.81
2023-09-27T03:14:45.188Z,102192.34
2023-09-27T03:17:11.687Z,102203.75
2023-09-27T03:19:38.246Z,102212.44
2023-09-27T03:22:04.716Z,102206.97
2023-09-27T03:24:31.430Z,102204.16
2023-09-27T03:26:58.736Z,102195.28
2023-09-27T03:29:25.214Z,102192.03
2023-09-27T03:31:51.676Z,102193.72
2023-09-27T03:34:18.251Z,102190.34
2023-09-27T03:36:45.487Z,102188.38
2023-09-27T03:39:12.427Z,102195.41
2023-09-27T03:41:40.271Z,102195.53
2023-09-27T03:44:06.856Z,102194.69
2023-09-27T03:46:33.321Z,102199.19
2023-09-27T03:48:59.764Z,102206.22
2023-09-27T03:51:26.465Z,102205.50
2023-09-27T03:53:52.984Z,102208.59
2023-09-27T03:56:19.548Z,102211.53
2023-09-27T03:58:46.105Z,102213.09
2023-09-27T04:01:13.417Z,102227.28
2023-09-27T04:03:40.073Z,102228.97
2023-09-27T04:06:06.586Z,102235.00
2023-09-27T04:08:33.434Z,102237.69
2023-09-27T04:11:02.919Z,102226.03
2023-09-27T04:13:29.463Z,102230.94
2023-09-27T04:15:55.968Z,102233.88
2023-09-27T04:18:22.501Z,102235.69
2023-09-27T04:20:49.019Z,102243.81
2023-09-27T04:23:15.625Z,102241.81
2023-09-27T04:25:42.812Z,102245.59
2023-09-27T04:28:10.940Z,102248.13
2023-09-27T04:30:38.303Z,102226.41
2023-09-27T04:33:04.876Z,102210.53
2023-09-27T04:35:31.473Z,102212.88
2023-09-27T04:37:58.145Z,102221.63
2023-09-27T04:40:24.679Z,102230.47
2023-09-27T04:42:51.145Z,102228.91
2023-09-27T04:45:17.624Z,102226.03
2023-09-27T04:47:45.978Z,102218.88
2023-09-27T04:50:16.746Z,102225.59
2023-09-27T04:52:43.744Z,102218.69
2023-09-27T04:55:10.326Z,102206.69
2023-09-27T04:57:36.926Z,102207.22
2023-09-27T05:00:05.204Z,102211.13
2023-09-27T05:02:31.890Z,102211.00
2023-09-27T05:04:58.588Z,102217.91
2023-09-27T05:07:25.588Z,102209.75
2023-09-27T05:09:52.134Z,102209.03
2023-09-27T05:12:18.618Z,102202.00
2023-09-27T05:14:45.134Z,102204.34
2023-09-27T05:17:11.756Z,102195.75
2023-09-27T05:19:38.278Z,102186.91
2023-09-27T05:22:04.971Z,102189.00
2023-09-27T05:24:34.020Z,102193.59
2023-09-27T05:27:04.443Z,102205.34
2023-09-27T05:29:30.973Z,102186.25
2023-09-27T05:31:57.740Z,102185.84
2023-09-27T05:34:24.689Z,102188.66
2023-09-27T05:36:51.523Z,102196.78
2023-09-27T05:39:18.139Z,102186.97
2023-09-27T05:41:44.644Z,102178.84
2023-09-27T05:44:11.946Z,102193.16
2023-09-27T05:46:40.687Z,102196.38
2023-09-27T05:49:10.450Z,102207.53
2023-09-27T05:51:37.240Z,102212.63
2023-09-27T05:54:03.916Z,102208.13
2023-09-27T05:56:30.435Z,102212.50
2023-09-27T05:59:00.503Z,102212.34
2023-09-27T06:01:27.189Z,102203.91
2023-09-27T06:03:53.913Z,102196.63
2023-09-27T06:06:20.454Z,102193.94
2023-09-27T06:08:46.919Z,102189.72
2023-09-27T06:11:13.465Z,102194.44
2023-09-27T06:13:40.079Z,102190.34
2023-09-27T06:16:13.239Z,102194.84
2023-09-27T06:18:39.774Z,102193.16
2023-09-27T06:21:06.268Z,102193.28
2023-09-27T06:23:32.753Z,102209.84
2023-09-27T06:25:59.313Z,102211.41
2023-09-27T06:28:25.869Z,102212.00
2023-09-27T06:30:52.285Z,102222.31
2023-09-27T06:33:18.816Z,102216.56
2023-09-27T06:35:45.326Z,102211.00
2023-09-27T06:38:11.870Z,102208.44
2023-09-27T06:40:38.355Z,102211.25
2023-09-27T06:43:06.245Z,102207.59
2023-09-27T06:45:33.554Z,102210.13
2023-09-27T06:48:00.112Z,102206.75
2023-09-27T06:50:26.962Z,102211.38
2023-09-27T06:52:59.915Z,102210.38
2023-09-27T06:55:33.744Z,102215.84
2023-09-27T06:58:00.218Z,102217.28
2023-09-27T07:00:26.690Z,102217.91
2023-09-27T07:02:53.632Z,102213.00
2023-09-27T07:05:22.797Z,102208.38
2023-09-27T07:07:52.259Z,102215.28
2023-09-27T07:10:18.835Z,102210.31
2023-09-27T07:12:45.368Z,102229.09
2023-09-27T07:15:14.905Z,102229.81
2023-09-27T07:17:42.184Z,102223.50
2023-09-27T07:20:30.363Z,102213.09
2023-09-27T07:22:57.587Z,102227.22
2023-09-27T07:25:29.707Z,102225.47
2023-09-27T07:27:57.156Z,102217.09
2023-09-27T07:30:26.991Z,102223.31
2023-09-27T07:32:57.895Z,102231.38
2023-09-27T07:35:25.956Z,102242.25
2023-09-27T07:37:52.439Z,102248.72
2023-09-27T07:40:18.899Z,102241.19
2023-09-27T07:42:46.106Z,102255.94
2023-09-27T07:45:22.752Z,102252.88
2023-09-27T07:47:50.420Z,102261.22
2023-09-27T07:50:17.174Z,102253.22
2023-09-27T07:52:43.774Z,102261.69
2023-09-27T07:55:11.922Z,102266.63
2023-09-27T07:57:39.009Z,102264.16
2023-09-27T08:00:11.533Z,102262.63
2023-09-27T08:02:39.433Z,102260.81
2023-09-27T08:05:10.848Z,102253.50
2023-09-27T08:07:40.578Z,102244.94
2023-09-27T08:10:21.245Z,102252.56
2023-09-27T08:12:48.904Z,102253.97
2023-09-27T08:15:15.869Z,102264.84
2023-09-27T08:17:43.372Z,102270.63
2023-09-27T08:20:13.350Z,102273.59
2023-09-27T08:22:40.919Z,102274.56
2023-09-27T08:25:20.245Z,102275.97
2023-09-27T08:27:51.534Z,102269.31
2023-09-27T08:30:18.346Z,102266.47
2023-09-27T08:32:45.175Z,102273.78
2023-09-27T08:35:12.178Z,102281.50
2023-09-27T08:37:38.822Z,102276.28
2023-09-27T08:40:14.912Z,102268.53
2023-09-27T08:42:42.327Z,102262.06
2023-09-27T08:45:12.204Z,102273.38
2023-09-27T08:47:40.947Z,102271.25
2023-09-27T08:50:07.635Z,102262.81
2023-09-27T08:52:34.736Z,102260.56
2023-09-27T08:55:01.209Z,102270.72
2023-09-27T08:57:29.115Z,102263.97
2023-09-27T08:59:56.526Z,102253.56
2023-09-27T09:02:25.345Z,102269.06
2023-09-27T09:04:52.226Z,102252.28
2023-09-27T09:07:19.542Z,102257.09
2023-09-27T09:09:47.343Z,102271.47
2023-09-27T09:12:13.943Z,102263.59
2023-09-27T09:14:50.917Z,102245.69
2023-09-27T09:17:21.133Z,102229.19
2023-09-27T09:20:16.189Z,102221.59
2023-09-27T09:22:43.994Z,102217.25
2023-09-27T09:25:10.492Z,102241.63
2023-09-27T09:27:37.073Z,102229.22
2023-09-27T09:30:07.734Z,102225.69
2023-09-27T09:32:34.674Z,102221.31
2023-09-27T09:35:01.529Z,102214.28
2023-09-27T09:37:29.696Z,102229.63
2023-09-27T09:40:14.372Z,102254.72
2023-09-27T09:42:40.890Z,102235.97
2023-09-27T09:45:08.139Z,102231.47
2023-09-27T09:47:38.168Z,102218.22
2023-09-27T09:50:09.945Z,102220.06
2023-09-27T09:52:39.462Z,102205.78
2023-09-27T09:55:21.289Z,102212.88
2023-09-27T09:58:03.601Z,102225.28
2023-09-27T10:00:31.354Z,102222.59
2023-09-27T10:03:05.128Z,102234.16
2023-09-27T10:05:37.634Z,102217.94
2023-09-27T10:08:05.878Z,102208.94
2023-09-27T10:10:32.638Z,102211.59
2023-09-27T10:12:59.530Z,102208.09
2023-09-27T10:15:27.013Z,102203.56
2023-09-27T10:17:53.671Z,102209.91
2023-09-27T10:20:23.641Z,102207.09
2023-09-27T10:22:50.986Z,102216.97
2023-09-27T10:25:35.764Z,102200.91
2023-09-27T10:28:16.465Z,102193.84
2023-09-27T10:30:42.969Z,102184.84
2023-09-27T10:33:19.654Z,102180.34
2023-09-27T10:36:01.988Z,102190.19
2023-09-27T10:38:43.537Z,102163.44
2023-09-27T10:41:10.654Z,102160.91
2023-09-27T10:43:37.485Z,102152.72
2023-09-27T10:46:05.631Z,102151.03
2023-09-27T10:48:32.672Z,102136.09
2023-09-27T10:50:59.728Z,102123.56
2023-09-27T10:53:26.608Z,102120.88
2023-09-27T10:55:53.390Z,102110.31
2023-09-27T10:58:20.264Z,102105.94
2023-09-27T11:00:54.572Z,102098.06
2023-09-27T11:03:21.475Z,102099.72
2023-09-27T11:05:48.898Z,102095.22
2023-09-27T11:08:23.113Z,102089.75
2023-09-27T11:10:50.303Z,102090.59
2023-09-27T11:13:18.843Z,102108.34
2023-09-27T11:15:45.718Z,102117.09
2023-09-27T11:18:12.461Z,102115.53
2023-09-27T11:20:42.235Z,102115.22
2023-09-27T11:23:08.861Z,102104.22
2023-09-27T11:25:36.425Z,102100.28
2023-09-27T11:28:03.498Z,102097.31
2023-09-27T11:30:34.455Z,102101.50
2023-09-27T11:33:02.822Z,102107.41
2023-09-27T11:35:29.497Z,102109.66
2023-09-27T11:38:06.102Z,102105.84
2023-09-27T11:40:36.323Z,102106.38
2023-09-27T11:43:03.119Z,102102.41
2023-09-27T11:45:31.185Z,102099.44
2023-09-27T11:47:57.818Z,102092.78
2023-09-27T11:50:24.365Z,102083.59
2023-09-27T11:52:50.889Z,102082.47
2023-09-27T11:55:18.159Z,102065.56
2023-09-27T11:57:44.619Z,102072.84
2023-09-27T12:00:16.612Z,102070.69
2023-09-27T12:02:55.839Z,102068.72
2023-09-27T12:05:24.181Z,102056.00
2023-09-27T12:07:51.155Z,102046.84
2023-09-27T12:10:17.733Z,102042.19
2023-09-27T12:12:44.327Z,102037.38
2023-09-27T12:15:11.541Z,102038.91
2023-09-27T12:17:39.115Z,102031.56
2023-09-27T12:20:07.676Z,102026.06
2023-09-27T12:22:35.885Z,102021.38
2023-09-27T12:25:02.354Z,102024.75
2023-09-27T12:27:29.024Z,102020.91
2023-09-27T12:29:55.629Z,102016.22
2023-09-27T12:32:22.143Z,102018.63
2023-09-27T12:34:49.392Z,102016.63
2023-09-27T12:37:15.855Z,102007.59
2023-09-27T12:39:42.281Z,101995.53
2023-09-27T12:42:08.733Z,101996.22
2023-09-27T12:44:35.351Z,101984.50
2023-09-27T12:47:02.755Z,101982.53
2023-09-27T12:49:29.310Z,101983.22
2023-09-27T12:51:55.814Z,101981.06
2023-09-27T12:54:23.905Z,101974.56
2023-09-27T12:56:50.592Z,101973.38
2023-09-27T12:59:17.134Z,101968.88
2023-09-27T13:01:43.730Z,101964.88
2023-09-27T13:04:10.762Z,101959.38
2023-09-27T13:06:37.603Z,101944.81
2023-09-27T13:09:04.322Z,101937.44
2023-09-27T13:11:30.898Z,101932.59
2023-09-27T13:13:57.419Z,101928.06
2023-09-27T13:16:24.960Z,101934.28
2023-09-27T13:18:54.214Z,101921.53
2023-09-27T13:21:21.531Z,101916.03
2023-09-27T13:23:48.048Z,101914.03
2023-09-27T13:26:14.725Z,101910.00
2023-09-27T13:28:41.176Z,101908.84
2023-09-27T13:31:08.368Z,101920.28
2023-09-27T13:33:35.725Z,101915.75
2023-09-27T13:36:02.416Z,101900.34
2023-09-27T13:38:29.182Z,101904.72
2023-09-27T13:40:55.927Z,101901.72
2023-09-27T13:43:22.415Z,101902.25
2023-09-27T13:45:48.926Z,101896.72
2023-09-27T13:48:15.646Z,101899.09
2023-09-27T13:50:42.233Z,101897.94
2023-09-27T13:53:08.798Z,101906.66
2023-09-27T13:55:35.318Z,101901.13
2023-09-27T13:58:01.757Z,101897.25
2023-09-27T14:00:29.032Z,101900.47
2023-09-27T14:02:56.124Z,101902.16
2023-09-27T14:05:22.777Z,101893.94
2023-09-27T14:07:51.144Z,101890.09
2023-09-27T14:10:18.302Z,101885.41
2023-09-27T14:12:44.744Z,101882.72
2023-09-27T14:15:13.032Z,101886.25
2023-09-27T14:17:41.232Z,101881.69
2023-09-27T14:20:08.357Z,101879.00
2023-09-27T14:22:35.560Z,101877.00
2023-09-27T14:25:02.223Z,101875.16
2023-09-27T14:27:29.489Z,101876.00
2023-09-27T14:29:55.989Z,101875.84
2023-09-27T14:32:23.616Z,101867.78
2023-09-27T14:37:20.316Z,101860.44
2023-09-27T14:39:46.777Z,101853.22
2023-09-27T14:42:13.681Z,101842.97
2023-09-27T14:44:40.308Z,101844.16
2023-09-27T14:47:06.822Z,101838.78
2023-09-27T14:49:33.317Z,101837.78
2023-09-27T14:51:59.910Z,101830.56
2023-09-27T14:54:26.402Z,101833.09
2023-09-27T14:56:52.995Z,101832.09
2023-09-27T14:59:19.550Z,101829.41
2023-09-27T15:01:46.093Z,101828.38
2023-09-27T15:04:14.222Z,101825.88
2023-09-27T15:06:41.095Z,101818.69
2023-09-27T15:09:07.580Z,101821.53
2023-09-27T15:11:34.209Z,101826.88
2023-09-27T15:14:00.709Z,101822.53
2023-09-27T15:16:27.186Z,101815.31
2023-09-27T15:18:53.802Z,101810.09
2023-09-27T15:21:20.345Z,101806.59
2023-09-27T15:23:46.798Z,101798.69
2023-09-27T15:26:13.420Z,101803.38
2023-09-27T15:28:39.965Z,101804.06
2023-09-27T15:31:08.525Z,101797.16
2023-09-27T15:33:34.964Z,101793.66
2023-09-27T15:36:01.404Z,101792.81
2023-09-27T15:38:28.128Z,101785.75
2023-09-27T15:40:54.946Z,101792.13
2023-09-27T15:43:22.055Z,101776.38
2023-09-27T15:46:06.840Z,101772.00
2023-09-27T15:48:36.925Z,101764.97
2023-09-27T15:51:07.598Z,101775.84
2023-09-27T15:53:34.816Z,101776.69
2023-09-27T15:56:02.694Z,101781.38
2023-09-27T15:58:29.444Z,101782.06
2023-09-27T16:00:56.008Z,101779.72
2023-09-27T16:03:22.625Z,101786.91
2023-09-27T16:05:50.088Z,101781.72
2023-09-27T16:08:24.319Z,101777.34
2023-09-27T16:10:55.081Z,101773.81
2023-09-27T16:13:23.388Z,101768.63
2023-09-27T16:15:51.415Z,101764.09
2023-09-27T16:18:19.083Z,101760.75
2023-09-27T16:20:46.270Z,101750.03
2023-09-27T16:23:13.541Z,101751.88
2023-09-27T16:25:40.104Z,101749.34
2023-09-27T16:28:07.958Z,101743.13
2023-09-27T16:30:36.103Z,101734.41
2023-09-27T16:33:05.656Z,101738.94
2023-09-27T16:35:36.932Z,101730.88
2023-09-27T16:38:03.711Z,101731.88
2023-09-27T16:40:30.351Z,101722.31
2023-09-27T16:42:56.859Z,101724.16
2023-09-27T16:45:23.720Z,101717.97
2023-09-27T16:47:50.253Z,101729.69
2023-09-27T16:50:16.749Z,101722.84
2023-09-27T16:52:43.285Z,101727.50
2023-09-27T16:55:09.909Z,101727.66
2023-09-27T16:57:37.310Z,101716.25
2023-09-27T17:00:07.098Z,101704.84
2023-09-27T17:02:34.038Z,101708.00
2023-09-27T17:05:00.881Z,101705.50
2023-09-27T17:07:33.897Z,101703.81
2023-09-27T17:10:01.221Z,101705.84
2023-09-27T17:12:27.829Z,101699.94
2023-09-27T17:14:54.357Z,101695.44
2023-09-27T17:17:20.873Z,101700.09
2023-09-27T17:19:47.807Z,101711.84
2023-09-27T17:22:14.288Z,101710.16
2023-09-27T17:24:40.805Z,101707.47
2023-09-27T17:27:07.700Z,101707.81
2023-09-27T17:29:35.073Z,101711.50
2023-09-27T17:32:01.663Z,101702.78
2023-09-27T17:34:28.351Z,101706.78
2023-09-27T17:36:54.858Z,101699.06
2023-09-27T17:39:21.466Z,101668.72
2023-09-27T17:41:48.033Z,101675.59
2023-09-27T17:44:14.576Z,101679.28
2023-09-27T17:46:41.117Z,101678.75
2023-09-27T17:49:07.713Z,101675.22
2023-09-27T17:51:34.287Z,101678.22
2023-09-27T17:54:00.763Z,101676.56
2023-09-27T17:56:30.456Z,101682.09
2023-09-27T17:58:57.168Z,101677.91
2023-09-27T18:01:26.962Z,101672.69
2023-09-27T18:03:53.892Z,101662.97
2023-09-27T18:06:20.705Z,101655.09
2023-09-27T18:08:47.175Z,101657.63
2023-09-27T18:11:15.055Z,101663.13
2023-09-27T18:13:42.253Z,101657.94
2023-09-27T18:16:16.232Z,101657.09
2023-09-27T18:18:44.093Z,101663.44
2023-09-27T18:21:14.338Z,101663.63
2023-09-27T18:23:41.460Z,101665.44
2023-09-27T18:26:08.270Z,101667.31
2023-09-27T18:28:35.474Z,101658.59
2023-09-27T18:31:02.031Z,101662.28
2023-09-27T18:33:28.750Z,101664.97
2023-09-27T18:35:55.204Z,101666.81
2023-09-27T18:38:21.749Z,101646.84
2023-09-27T18:40:48.375Z,101662.59
2023-09-27T18:43:19.388Z,101664.44
2023-09-27T18:45:46.825Z,101660.06
2023-09-27T18:48:19.317Z,101646.16
2023-09-27T18:50:47.015Z,101644.63
2023-09-27T18:53:13.615Z,101644.94
2023-09-27T18:55:40.125Z,101651.47
2023-09-27T18:58:07.284Z,101644.41
2023-09-27T19:00:33.768Z,101650.94
2023-09-27T19:03:02.671Z,101643.22
2023-09-27T19:05:29.379Z,101639.72
2023-09-27T19:07:55.917Z,101626.50
2023-09-27T19:10:22.526Z,101612.25
2023-09-27T19:12:49.009Z,101627.81
2023-09-27T19:15:15.438Z,101638.50
2023-09-27T19:17:42.559Z,101625.13
2023-09-27T19:20:10.041Z,101627.94
2023-09-27T19:22:36.837Z,101626.28
2023-09-27T19:25:04.339Z,101614.88
2023-09-27T19:27:31.176Z,101609.84
2023-09-27T19:29:57.650Z,101613.53
2023-09-27T19:32:24.305Z,101622.72
2023-09-27T19:34:51.021Z,101619.22
2023-09-27T19:37:20.508Z,101604.97
2023-09-27T19:39:48.399Z,101592.75
2023-09-27T19:42:15.234Z,101584.03
2023-09-27T19:44:42.328Z,101584.19
2023-09-27T19:47:09.238Z,101577.50
2023-09-27T19:49:36.006Z,101578.50
2023-09-27T19:52:03.382Z,101575.97
2023-09-27T19:54:29.899Z,101572.47
2023-09-27T19:56:56.414Z,101565.41
2023-09-27T19:59:23.172Z,101555.72
2023-09-27T20:01:49.806Z,101547.84
2023-09-27T20:04:16.384Z,101539.28
2023-09-27T20:06:43.181Z,101530.59
2023-09-27T20:09:09.852Z,101522.72
2023-09-27T20:11:38.713Z,101524.72
2023-09-27T20:14:05.631Z,101526.25
2023-09-27T20:16:33.788Z,101515.69
2023-09-27T20:19:01.135Z,101513.16
2023-09-27T20:21:27.774Z,101523.72
2023-09-27T20:23:54.469Z,101517.53
2023-09-27T20:26:21.111Z,101490.91
2023-09-27T20:28:48.244Z,101478.53
2023-09-27T20:31:15.900Z,101474.66
2023-09-27T20:33:42.548Z,101499.09
2023-09-27T20:36:12.855Z,101496.44
2023-09-27T20:38:39.931Z,101490.22
2023-09-27T20:41:06.645Z,101491.06
2023-09-27T20:43:33.127Z,101478.69
2023-09-27T20:45:59.637Z,101482.19
2023-09-27T20:48:26.663Z,101479.38
2023-09-27T20:50:58.084Z,101480.22
2023-09-27T20:53:25.473Z,101464.00
2023-09-27T20:55:54.099Z,101447.94
2023-09-27T20:58:20.844Z,101434.72
2023-09-27T21:00:47.524Z,101428.19
2023-09-27T21:03:14.112Z,101447.78
2023-09-27T21:05:41.063Z,101441.41
2023-09-27T21:08:07.738Z,101443.06
2023-09-27T21:10:34.324Z,101460.81
2023-09-27T21:13:00.824Z,101462.47
2023-09-27T21:15:27.415Z,101453.28
2023-09-27T21:17:54.077Z,101469.34
2023-09-27T21:20:20.847Z,101463.00
2023-09-27T21:22:48.236Z,101467.19
2023-09-27T21:25:15.903Z,101464.69
2023-09-27T21:27:42.814Z,101484.94
2023-09-27T21:30:09.575Z,101456.50
2023-09-27T21:32:36.464Z,101463.69
2023-09-27T21:35:04.471Z,101461.84
2023-09-27T21:37:31.061Z,101457.50
2023-09-27T21:39:57.560Z,101444.94
2023-09-27T21:42:24.157Z,101435.22
2023-09-27T21:44:50.643Z,101443.28
2023-09-27T21:47:17.135Z,101434.41
2023-09-27T21:49:43.629Z,101438.75
2023-09-27T21:52:11.188Z,101430.88
2023-09-27T21:54:37.670Z,101421.00
2023-09-27T21:57:04.155Z,101414.13
2023-09-27T21:59:30.632Z,101429.19
2023-09-27T22:01:57.131Z,101449.78
2023-09-27T22:04:23.818Z,101468.50
2023-09-27T22:06:50.307Z,101469.19
2023-09-27T22:09:16.860Z,101479.59
2023-09-27T22:11:45.324Z,101475.75
2023-09-27T22:14:11.872Z,101478.44
2023-09-27T22:16:38.497Z,101492.47
2023-09-27T22:19:12.236Z,101481.59
2023-09-27T22:21:42.805Z,101467.38
2023-09-27T22:24:13.143Z,101469.22
2023-09-27T22:26:47.087Z,101462.84
2023-09-27T22:29:15.400Z,101469.88
2023-09-27T22:31:43.721Z,101467.06
2023-09-27T22:34:24.159Z,101448.31
2023-09-27T22:36:54.607Z,101448.47
2023-09-27T22:39:23.392Z,101451.81
2023-09-27T22:41:53.123Z,101445.63
2023-09-27T22:44:20.729Z,101447.31
2023-09-27T22:46:51.565Z,101450.81
2023-09-27T22:49:24.534Z,101447.16
2023-09-27T22:51:51.301Z,101441.63
2023-09-27T22:54:18.921Z,101437.28
2023-09-27T22:56:46.085Z,101430.09
2023-09-27T22:59:13.319Z,101435.44
2023-09-27T23:01:40.926Z,101414.00
2023-09-27T23:04:11.569Z,101404.97
2023-09-27T23:06:46.068Z,101415.69
2023-09-27T23:09:21.225Z,101422.88
2023-09-27T23:11:49.870Z,101413.00
2023-09-27T23:14:22.782Z,101416.53
2023-09-27T23:16:50.648Z,101416.53
2023-09-27T23:19:18.811Z,101420.88
2023-09-27T23:21:46.723Z,101429.75
2023-09-27T23:24:22.083Z,101433.09
2023-09-27T23:27:00.538Z,101426.91
2023-09-27T23:29:30.315Z,101441.97
2023-09-27T23:32:15.230Z,101431.25
2023-09-27T23:34:42.183Z,101443.63
2023-09-27T23:37:16.582Z,101434.59
2023-09-27T23:39:44.040Z,101435.44
2023-09-27T23:42:22.999Z,101444.47
2023-09-27T23:44:54.667Z,101434.75
2023-09-27T23:47:23.607Z,101442.78
2023-09-27T23:50:01.898Z,101454.69
2023-09-27T23:52:29.630Z,101452.88
2023-09-27T23:54:57.668Z,101461.72
2023-09-27T23:57:28.910Z,101447.66
